sensor_id;sensor_type;location;lat;lon;timestamp;temperature;humidity
35700;DHT22;21818;51.078;12.108;2024-03-22T00:01:49;13.90;83.00
35700;DHT22;21818;51.078;12.108;2024-03-22T00:04:18;13.90;83.00
35700;DHT22;21818;51.078;12.108;2024-03-22T00:06:45;13.90;83.00
35700;DHT22;21818;51.078;12.108;2024-03-22T00:09:11;13.90;83.00
35700;DHT22;21818;51.078;12.108;2024-03-22T00:11:37;13.80;82.90
35700;DHT22;21818;51.078;12.108;2024-03-22T00:14:03;13.90;83.00
35700;DHT22;21818;51.078;12.108;2024-03-22T00:16:29;13.90;82.90
35700;DHT22;21818;51.078;12.108;2024-03-22T00:18:54;13.90;82.90
35700;DHT22;21818;51.078;12.108;2024-03-22T00:21:21;13.90;83.00
35700;DHT22;21818;51.078;12.108;2024-03-22T00:23:47;13.80;83.10
35700;DHT22;21818;51.078;12.108;2024-03-22T00:26:12;13.80;83.10
35700;DHT22;21818;51.078;12.108;2024-03-22T00:28:38;13.90;83.40
35700;DHT22;21818;51.078;12.108;2024-03-22T00:31:04;13.80;83.10
35700;DHT22;21818;51.078;12.108;2024-03-22T00:33:29;13.80;83.10
35700;DHT22;21818;51.078;12.108;2024-03-22T00:35:55;13.80;83.10
35700;DHT22;21818;51.078;12.108;2024-03-22T00:38:20;13.80;83.10
35700;DHT22;21818;51.078;12.108;2024-03-22T00:40:46;13.80;83.00
35700;DHT22;21818;51.078;12.108;2024-03-22T00:43:12;13.70;82.90
35700;DHT22;21818;51.078;12.108;2024-03-22T00:45:37;13.80;83.00
35700;DHT22;21818;51.078;12.108;2024-03-22T00:48:03;13.70;83.00
35700;DHT22;21818;51.078;12.108;2024-03-22T00:50:28;13.70;83.00
35700;DHT22;21818;51.078;12.108;2024-03-22T00:52:54;13.70;82.90
35700;DHT22;21818;51.078;12.108;2024-03-22T00:55:23;13.70;82.90
35700;DHT22;21818;51.078;12.108;2024-03-22T00:57:49;13.60;82.90
35700;DHT22;21818;51.078;12.108;2024-03-22T01:00:15;13.60;82.90
35700;DHT22;21818;51.078;12.108;2024-03-22T01:02:42;13.60;82.90
35700;DHT22;21818;51.078;12.108;2024-03-22T01:05:08;13.50;82.90
35700;DHT22;21818;51.078;12.108;2024-03-22T01:07:33;13.50;83.00
35700;DHT22;21818;51.078;12.108;2024-03-22T01:09:59;13.60;82.90
35700;DHT22;21818;51.078;12.108;2024-03-22T01:12:25;13.60;82.80
35700;DHT22;21818;51.078;12.108;2024-03-22T01:14:50;13.60;82.70
35700;DHT22;21818;51.078;12.108;2024-03-22T01:17:16;13.60;82.70
35700;DHT22;21818;51.078;12.108;2024-03-22T01:19:41;13.60;82.60
35700;DHT22;21818;51.078;12.108;2024-03-22T01:22:07;13.50;82.60
35700;DHT22;21818;51.078;12.108;2024-03-22T01:24:32;13.50;82.60
35700;DHT22;21818;51.078;12.108;2024-03-22T01:26:58;13.60;82.60
35700;DHT22;21818;51.078;12.108;2024-03-22T01:29:23;13.60;82.60
35700;DHT22;21818;51.078;12.108;2024-03-22T01:31:49;13.50;82.70
35700;DHT22;21818;51.078;12.108;2024-03-22T01:34:15;13.50;82.80
35700;DHT22;21818;51.078;12.108;2024-03-22T01:36:40;13.50;82.70
35700;DHT22;21818;51.078;12.108;2024-03-22T01:39:06;13.50;82.60
35700;DHT22;21818;51.078;12.108;2024-03-22T01:41:31;13.50;82.70
35700;DHT22;21818;51.078;12.108;2024-03-22T01:43:58;13.50;82.70
35700;DHT22;21818;51.078;12.108;2024-03-22T01:46:24;13.50;82.70
35700;DHT22;21818;51.078;12.108;2024-03-22T01:48:50;13.50;82.50
35700;DHT22;21818;51.078;12.108;2024-03-22T01:51:16;13.50;82.60
35700;DHT22;21818;51.078;12.108;2024-03-22T01:53:42;13.50;82.60
35700;DHT22;21818;51.078;12.108;2024-03-22T01:56:08;13.50;82.50
35700;DHT22;21818;51.078;12.108;2024-03-22T01:58:34;13.60;82.60
35700;DHT22;21818;51.078;12.108;2024-03-22T02:01:00;13.60;82.60
35700;DHT22;21818;51.078;12.108;2024-03-22T02:03:25;13.60;82.50
35700;DHT22;21818;51.078;12.108;2024-03-22T02:05:52;13.60;82.50
35700;DHT22;21818;51.078;12.108;2024-03-22T02:08:17;13.60;82.60
35700;DHT22;21818;51.078;12.108;2024-03-22T02:10:43;13.60;82.60
35700;DHT22;21818;51.078;12.108;2024-03-22T02:13:08;13.60;82.70
35700;DHT22;21818;51.078;12.108;2024-03-22T02:15:34;13.60;82.50
35700;DHT22;21818;51.078;12.108;2024-03-22T02:17:59;13.60;82.50
35700;DHT22;21818;51.078;12.108;2024-03-22T02:20:25;13.60;82.50
35700;DHT22;21818;51.078;12.108;2024-03-22T02:22:51;13.60;82.50
35700;DHT22;21818;51.078;12.108;2024-03-22T02:25:16;13.60;82.40
35700;DHT22;21818;51.078;12.108;2024-03-22T02:27:43;13.60;82.50
35700;DHT22;21818;51.078;12.108;2024-03-22T02:30:08;13.60;82.40
35700;DHT22;21818;51.078;12.108;2024-03-22T02:32:34;13.50;82.40
35700;DHT22;21818;51.078;12.108;2024-03-22T02:35:00;13.50;82.40
35700;DHT22;21818;51.078;12.108;2024-03-22T02:37:25;13.50;82.40
35700;DHT22;21818;51.078;12.108;2024-03-22T02:39:51;13.50;82.30
35700;DHT22;21818;51.078;12.108;2024-03-22T02:42:16;13.50;82.40
35700;DHT22;21818;51.078;12.108;2024-03-22T02:44:42;13.50;82.30
35700;DHT22;21818;51.078;12.108;2024-03-22T02:47:10;13.50;82.40
35700;DHT22;21818;51.078;12.108;2024-03-22T02:49:38;13.40;82.30
35700;DHT22;21818;51.078;12.108;2024-03-22T02:52:04;13.40;82.30
35700;DHT22;21818;51.078;12.108;2024-03-22T02:54:30;13.50;82.30
35700;DHT22;21818;51.078;12.108;2024-03-22T02:56:55;13.50;82.30
35700;DHT22;21818;51.078;12.108;2024-03-22T02:59:21;13.40;82.50
35700;DHT22;21818;51.078;12.108;2024-03-22T03:01:46;13.50;82.70
35700;DHT22;21818;51.078;12.108;2024-03-22T03:04:12;13.50;82.60
35700;DHT22;21818;51.078;12.108;2024-03-22T03:06:38;13.60;82.70
35700;DHT22;21818;51.078;12.108;2024-03-22T03:09:03;13.60;82.70
35700;DHT22;21818;51.078;12.108;2024-03-22T03:11:32;13.50;82.60
35700;DHT22;21818;51.078;12.108;2024-03-22T03:13:58;13.50;82.70
35700;DHT22;21818;51.078;12.108;2024-03-22T03:16:23;13.50;82.70
35700;DHT22;21818;51.078;12.108;2024-03-22T03:18:49;13.50;82.70
35700;DHT22;21818;51.078;12.108;2024-03-22T03:21:15;13.50;82.60
35700;DHT22;21818;51.078;12.108;2024-03-22T03:23:40;13.50;82.70
35700;DHT22;21818;51.078;12.108;2024-03-22T03:26:06;13.50;82.60
35700;DHT22;21818;51.078;12.108;2024-03-22T03:28:31;13.50;82.80
35700;DHT22;21818;51.078;12.108;2024-03-22T03:30:57;13.50;82.90
35700;DHT22;21818;51.078;12.108;2024-03-22T03:33:22;13.50;82.80
35700;DHT22;21818;51.078;12.108;2024-03-22T03:35:48;13.50;82.80
35700;DHT22;21818;51.078;12.108;2024-03-22T03:38:14;13.50;82.90
35700;DHT22;21818;51.078;12.108;2024-03-22T03:40:39;13.60;82.80
35700;DHT22;21818;51.078;12.108;2024-03-22T03:43:05;13.50;82.90
35700;DHT22;21818;51.078;12.108;2024-03-22T03:45:30;13.60;82.90
35700;DHT22;21818;51.078;12.108;2024-03-22T03:47:56;13.60;82.80
35700;DHT22;21818;51.078;12.108;2024-03-22T03:50:22;13.60;82.80
35700;DHT22;21818;51.078;12.108;2024-03-22T03:52:47;13.60;82.80
35700;DHT22;21818;51.078;12.108;2024-03-22T03:55:13;13.60;82.80
35700;DHT22;21818;51.078;12.108;2024-03-22T03:57:38;13.60;82.80
35700;DHT22;21818;51.078;12.108;2024-03-22T04:00:04;13.70;82.80
35700;DHT22;21818;51.078;12.108;2024-03-22T04:02:30;13.70;82.80
35700;DHT22;21818;51.078;12.108;2024-03-22T04:04:56;13.80;82.70
35700;DHT22;21818;51.078;12.108;2024-03-22T04:07:21;13.70;82.60
35700;DHT22;21818;51.078;12.108;2024-03-22T04:09:47;13.70;82.60
35700;DHT22;21818;51.078;12.108;2024-03-22T04:12:12;13.70;82.70
35700;DHT22;21818;51.078;12.108;2024-03-22T04:14:38;13.70;82.60
35700;DHT22;21818;51.078;12.108;2024-03-22T04:17:04;13.70;82.60
35700;DHT22;21818;51.078;12.108;2024-03-22T04:19:30;13.80;82.50
35700;DHT22;21818;51.078;12.108;2024-03-22T04:21:55;13.70;82.40
35700;DHT22;21818;51.078;12.108;2024-03-22T04:24:21;13.70;82.40
35700;DHT22;21818;51.078;12.108;2024-03-22T04:26:46;13.70;82.30
35700;DHT22;21818;51.078;12.108;2024-03-22T04:29:12;13.70;82.20
35700;DHT22;21818;51.078;12.108;2024-03-22T04:31:37;13.70;82.30
35700;DHT22;21818;51.078;12.108;2024-03-22T04:34:03;13.80;82.10
35700;DHT22;21818;51.078;12.108;2024-03-22T04:36:30;13.70;82.00
35700;DHT22;21818;51.078;12.108;2024-03-22T04:38:56;13.80;82.10
35700;DHT22;21818;51.078;12.108;2024-03-22T04:41:22;13.80;81.90
35700;DHT22;21818;51.078;12.108;2024-03-22T04:43:48;13.80;82.00
35700;DHT22;21818;51.078;12.108;2024-03-22T04:46:13;13.80;82.00
35700;DHT22;21818;51.078;12.108;2024-03-22T04:48:39;13.80;82.00
35700;DHT22;21818;51.078;12.108;2024-03-22T04:51:04;13.80;81.90
35700;DHT22;21818;51.078;12.108;2024-03-22T04:53:30;13.80;81.80
35700;DHT22;21818;51.078;12.108;2024-03-22T04:55:55;13.90;81.80
35700;DHT22;21818;51.078;12.108;2024-03-22T04:58:21;13.90;81.70
35700;DHT22;21818;51.078;12.108;2024-03-22T05:00:48;13.90;81.50
35700;DHT22;21818;51.078;12.108;2024-03-22T05:03:14;13.90;81.50
35700;DHT22;21818;51.078;12.108;2024-03-22T05:05:41;13.90;81.40
35700;DHT22;21818;51.078;12.108;2024-03-22T05:08:07;13.80;81.40
35700;DHT22;21818;51.078;12.108;2024-03-22T05:10:33;13.80;81.50
35700;DHT22;21818;51.078;12.108;2024-03-22T05:12:59;13.90;81.40
35700;DHT22;21818;51.078;12.108;2024-03-22T05:15:24;13.90;81.40
35700;DHT22;21818;51.078;12.108;2024-03-22T05:17:55;13.90;81.40
35700;DHT22;21818;51.078;12.108;2024-03-22T05:20:21;13.90;81.20
35700;DHT22;21818;51.078;12.108;2024-03-22T05:22:49;13.90;81.30
35700;DHT22;21818;51.078;12.108;2024-03-22T05:25:15;13.90;81.30
35700;DHT22;21818;51.078;12.108;2024-03-22T05:27:41;14.00;81.30
35700;DHT22;21818;51.078;12.108;2024-03-22T05:30:11;14.00;81.20
35700;DHT22;21818;51.078;12.108;2024-03-22T05:32:37;14.00;81.20
35700;DHT22;21818;51.078;12.108;2024-03-22T05:35:04;14.00;81.10
35700;DHT22;21818;51.078;12.108;2024-03-22T05:37:29;14.00;81.10
35700;DHT22;21818;51.078;12.108;2024-03-22T05:39:55;14.00;81.00
35700;DHT22;21818;51.078;12.108;2024-03-22T05:42:21;14.00;81.00
35700;DHT22;21818;51.078;12.108;2024-03-22T05:44:47;14.00;81.10
35700;DHT22;21818;51.078;12.108;2024-03-22T05:47:13;14.00;80.90
35700;DHT22;21818;51.078;12.108;2024-03-22T05:49:39;13.90;80.90
35700;DHT22;21818;51.078;12.108;2024-03-22T05:52:05;13.90;81.00
35700;DHT22;21818;51.078;12.108;2024-03-22T05:54:30;13.90;80.90
35700;DHT22;21818;51.078;12.108;2024-03-22T05:56:56;13.90;81.00
35700;DHT22;21818;51.078;12.108;2024-03-22T05:59:22;13.90;80.90
35700;DHT22;21818;51.078;12.108;2024-03-22T06:01:47;14.00;80.70
35700;DHT22;21818;51.078;12.108;2024-03-22T06:04:13;13.90;80.80
35700;DHT22;21818;51.078;12.108;2024-03-22T06:06:38;14.00;80.70
35700;DHT22;21818;51.078;12.108;2024-03-22T06:09:04;14.00;80.70
35700;DHT22;21818;51.078;12.108;2024-03-22T06:11:34;14.00;80.60
35700;DHT22;21818;51.078;12.108;2024-03-22T06:13:59;14.00;80.50
35700;DHT22;21818;51.078;12.108;2024-03-22T06:16:25;14.00;80.50
35700;DHT22;21818;51.078;12.108;2024-03-22T06:18:51;14.00;80.40
35700;DHT22;21818;51.078;12.108;2024-03-22T06:21:16;14.10;80.30
35700;DHT22;21818;51.078;12.108;2024-03-22T06:23:50;14.10;80.30
35700;DHT22;21818;51.078;12.108;2024-03-22T06:26:16;14.10;80.30
35700;DHT22;21818;51.078;12.108;2024-03-22T06:28:42;14.20;80.20
35700;DHT22;21818;51.078;12.108;2024-03-22T06:31:07;14.20;80.20
35700;DHT22;21818;51.078;12.108;2024-03-22T06:33:33;14.20;80.10
35700;DHT22;21818;51.078;12.108;2024-03-22T06:35:59;14.20;79.90
35700;DHT22;21818;51.078;12.108;2024-03-22T06:38:25;14.30;79.90
35700;DHT22;21818;51.078;12.108;2024-03-22T06:40:50;14.30;79.90
35700;DHT22;21818;51.078;12.108;2024-03-22T06:43:16;14.30;79.90
35700;DHT22;21818;51.078;12.108;2024-03-22T06:45:42;14.30;79.80
35700;DHT22;21818;51.078;12.108;2024-03-22T06:48:07;14.20;79.90
35700;DHT22;21818;51.078;12.108;2024-03-22T06:50:33;14.30;80.20
35700;DHT22;21818;51.078;12.108;2024-03-22T06:52:58;14.30;80.20
35700;DHT22;21818;51.078;12.108;2024-03-22T06:55:24;14.40;80.20
35700;DHT22;21818;51.078;12.108;2024-03-22T06:57:49;14.40;80.10
35700;DHT22;21818;51.078;12.108;2024-03-22T07:00:16;14.50;80.00
35700;DHT22;21818;51.078;12.108;2024-03-22T07:02:42;14.50;80.00
35700;DHT22;21818;51.078;12.108;2024-03-22T07:05:08;14.50;79.90
35700;DHT22;21818;51.078;12.108;2024-03-22T07:07:34;14.50;79.90
35700;DHT22;21818;51.078;12.108;2024-03-22T07:10:00;14.50;79.80
35700;DHT22;21818;51.078;12.108;2024-03-22T07:12:25;14.50;79.80
35700;DHT22;21818;51.078;12.108;2024-03-22T07:14:51;14.60;79.80
35700;DHT22;21818;51.078;12.108;2024-03-22T07:17:17;14.60;79.50
35700;DHT22;21818;51.078;12.108;2024-03-22T07:19:42;14.60;79.40
35700;DHT22;21818;51.078;12.108;2024-03-22T07:22:08;14.60;79.40
35700;DHT22;21818;51.078;12.108;2024-03-22T07:24:34;14.60;79.30
35700;DHT22;21818;51.078;12.108;2024-03-22T07:26:59;14.60;79.30
35700;DHT22;21818;51.078;12.108;2024-03-22T07:29:25;14.60;79.30
35700;DHT22;21818;51.078;12.108;2024-03-22T07:31:50;14.70;79.20
35700;DHT22;21818;51.078;12.108;2024-03-22T07:34:16;14.70;79.10
35700;DHT22;21818;51.078;12.108;2024-03-22T07:36:41;14.70;79.00
35700;DHT22;21818;51.078;12.108;2024-03-22T07:39:07;14.70;78.90
35700;DHT22;21818;51.078;12.108;2024-03-22T07:41:33;14.70;79.00
35700;DHT22;21818;51.078;12.108;2024-03-22T07:44:00;14.70;78.90
35700;DHT22;21818;51.078;12.108;2024-03-22T07:46:26;14.80;78.80
35700;DHT22;21818;51.078;12.108;2024-03-22T07:48:52;14.80;78.70
35700;DHT22;21818;51.078;12.108;2024-03-22T07:51:17;14.80;78.70
35700;DHT22;21818;51.078;12.108;2024-03-22T07:53:43;14.80;78.50
35700;DHT22;21818;51.078;12.108;2024-03-22T07:56:09;14.90;78.40
35700;DHT22;21818;51.078;12.108;2024-03-22T07:58:34;14.90;78.40
35700;DHT22;21818;51.078;12.108;2024-03-22T08:01:00;14.90;78.40
35700;DHT22;21818;51.078;12.108;2024-03-22T08:03:25;15.00;78.40
35700;DHT22;21818;51.078;12.108;2024-03-22T08:05:51;15.00;78.30
35700;DHT22;21818;51.078;12.108;2024-03-22T08:08:16;15.00;78.20
35700;DHT22;21818;51.078;12.108;2024-03-22T08:10:43;15.00;78.10
35700;DHT22;21818;51.078;12.108;2024-03-22T08:13:08;15.10;78.00
35700;DHT22;21818;51.078;12.108;2024-03-22T08:15:35;15.10;77.90
35700;DHT22;21818;51.078;12.108;2024-03-22T08:18:01;15.10;77.90
35700;DHT22;21818;51.078;12.108;2024-03-22T08:20:26;15.20;77.80
35700;DHT22;21818;51.078;12.108;2024-03-22T08:22:52;15.20;77.80
35700;DHT22;21818;51.078;12.108;2024-03-22T08:25:17;15.20;77.70
35700;DHT22;21818;51.078;12.108;2024-03-22T08:27:46;15.20;77.60
35700;DHT22;21818;51.078;12.108;2024-03-22T08:30:12;15.20;77.60
35700;DHT22;21818;51.078;12.108;2024-03-22T08:32:37;15.20;77.50
35700;DHT22;21818;51.078;12.108;2024-03-22T08:35:03;15.20;77.40
35700;DHT22;21818;51.078;12.108;2024-03-22T08:37:33;15.30;77.40
35700;DHT22;21818;51.078;12.108;2024-03-22T08:39:58;15.30;77.90
35700;DHT22;21818;51.078;12.108;2024-03-22T08:42:24;15.30;77.30
35700;DHT22;21818;51.078;12.108;2024-03-22T08:44:49;15.40;77.10
35700;DHT22;21818;51.078;12.108;2024-03-22T08:47:15;15.50;77.00
35700;DHT22;21818;51.078;12.108;2024-03-22T08:49:40;15.50;76.90
35700;DHT22;21818;51.078;12.108;2024-03-22T08:52:11;15.50;76.80
35700;DHT22;21818;51.078;12.108;2024-03-22T08:54:36;15.50;76.70
35700;DHT22;21818;51.078;12.108;2024-03-22T08:57:02;15.60;76.70
35700;DHT22;21818;51.078;12.108;2024-03-22T08:59:28;15.60;76.70
35700;DHT22;21818;51.078;12.108;2024-03-22T09:01:53;15.60;76.60
35700;DHT22;21818;51.078;12.108;2024-03-22T09:04:19;15.70;76.60
35700;DHT22;21818;51.078;12.108;2024-03-22T09:06:45;15.70;76.50
35700;DHT22;21818;51.078;12.108;2024-03-22T09:09:11;15.70;76.40
35700;DHT22;21818;51.078;12.108;2024-03-22T09:11:36;15.70;76.40
35700;DHT22;21818;51.078;12.108;2024-03-22T09:14:02;15.80;76.40
35700;DHT22;21818;51.078;12.108;2024-03-22T09:16:27;15.80;76.20
35700;DHT22;21818;51.078;12.108;2024-03-22T09:18:53;15.80;76.10
35700;DHT22;21818;51.078;12.108;2024-03-22T09:21:19;15.80;76.10
35700;DHT22;21818;51.078;12.108;2024-03-22T09:23:45;15.80;76.10
35700;DHT22;21818;51.078;12.108;2024-03-22T09:26:10;15.80;76.00
35700;DHT22;21818;51.078;12.108;2024-03-22T09:28:36;15.90;76.10
35700;DHT22;21818;51.078;12.108;2024-03-22T09:31:05;15.90;76.10
35700;DHT22;21818;51.078;12.108;2024-03-22T09:33:33;15.90;76.00
35700;DHT22;21818;51.078;12.108;2024-03-22T09:35:59;15.90;75.90
35700;DHT22;21818;51.078;12.108;2024-03-22T09:38:25;15.90;75.90
35700;DHT22;21818;51.078;12.108;2024-03-22T09:40:50;16.00;75.90
35700;DHT22;21818;51.078;12.108;2024-03-22T09:43:20;16.00;75.80
35700;DHT22;21818;51.078;12.108;2024-03-22T09:45:47;16.00;75.70
35700;DHT22;21818;51.078;12.108;2024-03-22T09:48:13;16.10;75.80
35700;DHT22;21818;51.078;12.108;2024-03-22T09:50:40;16.10;75.70
35700;DHT22;21818;51.078;12.108;2024-03-22T09:53:06;16.20;75.70
35700;DHT22;21818;51.078;12.108;2024-03-22T09:55:33;16.20;75.50
35700;DHT22;21818;51.078;12.108;2024-03-22T09:58:00;16.20;75.50
35700;DHT22;21818;51.078;12.108;2024-03-22T10:00:27;16.30;75.40
35700;DHT22;21818;51.078;12.108;2024-03-22T10:02:53;16.30;75.30
35700;DHT22;21818;51.078;12.108;2024-03-22T10:05:19;16.40;75.20
35700;DHT22;21818;51.078;12.108;2024-03-22T10:07:44;16.40;75.10
35700;DHT22;21818;51.078;12.108;2024-03-22T10:10:10;16.50;75.10
35700;DHT22;21818;51.078;12.108;2024-03-22T10:12:36;16.50;75.10
35700;DHT22;21818;51.078;12.108;2024-03-22T10:15:02;16.50;75.20
35700;DHT22;21818;51.078;12.108;2024-03-22T10:17:29;16.60;75.70
35700;DHT22;21818;51.078;12.108;2024-03-22T10:19:55;16.60;75.80
35700;DHT22;21818;51.078;12.108;2024-03-22T10:22:21;16.70;75.80
35700;DHT22;21818;51.078;12.108;2024-03-22T10:24:46;16.70;75.80
35700;DHT22;21818;51.078;12.108;2024-03-22T10:27:12;16.70;75.80
35700;DHT22;21818;51.078;12.108;2024-03-22T10:29:39;16.70;75.60
35700;DHT22;21818;51.078;12.108;2024-03-22T10:32:05;16.70;75.70
35700;DHT22;21818;51.078;12.108;2024-03-22T10:34:32;16.70;75.60
35700;DHT22;21818;51.078;12.108;2024-03-22T10:37:00;16.70;75.60
35700;DHT22;21818;51.078;12.108;2024-03-22T10:39:26;16.70;75.50
35700;DHT22;21818;51.078;12.108;2024-03-22T10:41:53;16.70;75.50
35700;DHT22;21818;51.078;12.108;2024-03-22T10:44:19;16.70;75.40
35700;DHT22;21818;51.078;12.108;2024-03-22T10:46:48;16.70;75.90
35700;DHT22;21818;51.078;12.108;2024-03-22T10:49:20;16.70;75.40
35700;DHT22;21818;51.078;12.108;2024-03-22T10:51:56;16.70;75.30
35700;DHT22;21818;51.078;12.108;2024-03-22T10:54:26;16.70;75.30
35700;DHT22;21818;51.078;12.108;2024-03-22T10:56:53;16.70;75.30
35700;DHT22;21818;51.078;12.108;2024-03-22T10:59:20;16.70;75.70
35700;DHT22;21818;51.078;12.108;2024-03-22T11:01:46;16.70;75.20
35700;DHT22;21818;51.078;12.108;2024-03-22T11:04:12;16.70;75.20
35700;DHT22;21818;51.078;12.108;2024-03-22T11:06:38;16.70;75.20
35700;DHT22;21818;51.078;12.108;2024-03-22T11:09:04;16.70;75.20
35700;DHT22;21818;51.078;12.108;2024-03-22T11:11:30;16.70;75.20
35700;DHT22;21818;51.078;12.108;2024-03-22T11:13:56;16.70;75.10
35700;DHT22;21818;51.078;12.108;2024-03-22T11:16:22;16.70;75.10
35700;DHT22;21818;51.078;12.108;2024-03-22T11:18:48;16.70;75.10
35700;DHT22;21818;51.078;12.108;2024-03-22T11:21:17;16.70;75.10
35700;DHT22;21818;51.078;12.108;2024-03-22T11:23:45;16.70;75.10
35700;DHT22;21818;51.078;12.108;2024-03-22T11:26:11;16.70;75.10
35700;DHT22;21818;51.078;12.108;2024-03-22T11:28:38;16.70;75.10
35700;DHT22;21818;51.078;12.108;2024-03-22T11:31:04;16.70;75.20
35700;DHT22;21818;51.078;12.108;2024-03-22T11:33:30;16.70;75.30
35700;DHT22;21818;51.078;12.108;2024-03-22T11:35:58;16.70;75.30
35700;DHT22;21818;51.078;12.108;2024-03-22T11:38:26;16.70;75.40
35700;DHT22;21818;51.078;12.108;2024-03-22T11:40:52;16.70;75.40
35700;DHT22;21818;51.078;12.108;2024-03-22T11:43:20;16.70;75.50
35700;DHT22;21818;51.078;12.108;2024-03-22T11:45:46;16.70;75.60
35700;DHT22;21818;51.078;12.108;2024-03-22T11:48:12;16.70;75.60
35700;DHT22;21818;51.078;12.108;2024-03-22T11:50:38;16.70;75.60
35700;DHT22;21818;51.078;12.108;2024-03-22T11:53:05;16.70;75.60
35700;DHT22;21818;51.078;12.108;2024-03-22T11:55:31;16.70;75.60
35700;DHT22;21818;51.078;12.108;2024-03-22T11:57:58;16.70;75.60
35700;DHT22;21818;51.078;12.108;2024-03-22T12:00:24;16.70;75.60
35700;DHT22;21818;51.078;12.108;2024-03-22T12:02:51;16.70;75.60
35700;DHT22;21818;51.078;12.108;2024-03-22T12:05:17;16.80;75.70
35700;DHT22;21818;51.078;12.108;2024-03-22T12:07:44;16.80;75.70
35700;DHT22;21818;51.078;12.108;2024-03-22T12:10:10;16.80;75.70
35700;DHT22;21818;51.078;12.108;2024-03-22T12:12:35;16.90;75.80
35700;DHT22;21818;51.078;12.108;2024-03-22T12:15:02;16.80;75.70
35700;DHT22;21818;51.078;12.108;2024-03-22T12:17:28;16.80;75.80
35700;DHT22;21818;51.078;12.108;2024-03-22T12:19:54;16.80;75.70
35700;DHT22;21818;51.078;12.108;2024-03-22T12:22:20;16.90;75.80
35700;DHT22;21818;51.078;12.108;2024-03-22T12:24:46;16.90;75.70
35700;DHT22;21818;51.078;12.108;2024-03-22T12:27:11;16.90;75.60
35700;DHT22;21818;51.078;12.108;2024-03-22T12:29:37;16.90;75.60
35700;DHT22;21818;51.078;12.108;2024-03-22T12:32:02;16.90;75.70
35700;DHT22;21818;51.078;12.108;2024-03-22T12:34:32;16.90;75.70
35700;DHT22;21818;51.078;12.108;2024-03-22T12:36:59;16.90;75.70
35700;DHT22;21818;51.078;12.108;2024-03-22T12:39:24;17.00;75.70
35700;DHT22;21818;51.078;12.108;2024-03-22T12:41:50;17.00;75.60
35700;DHT22;21818;51.078;12.108;2024-03-22T12:44:16;17.00;75.70
35700;DHT22;21818;51.078;12.108;2024-03-22T12:46:41;17.00;75.70
35700;DHT22;21818;51.078;12.108;2024-03-22T12:49:08;17.00;75.80
35700;DHT22;21818;51.078;12.108;2024-03-22T12:51:37;17.00;75.70
35700;DHT22;21818;51.078;12.108;2024-03-22T12:54:03;17.00;75.70
35700;DHT22;21818;51.078;12.108;2024-03-22T12:56:30;17.00;75.70
35700;DHT22;21818;51.078;12.108;2024-03-22T12:58:56;17.00;76.30
35700;DHT22;21818;51.078;12.108;2024-03-22T13:01:21;17.00;75.80
35700;DHT22;21818;51.078;12.108;2024-03-22T13:03:47;17.00;75.90
35700;DHT22;21818;51.078;12.108;2024-03-22T13:06:13;17.00;76.00
35700;DHT22;21818;51.078;12.108;2024-03-22T13:08:38;17.00;76.00
35700;DHT22;21818;51.078;12.108;2024-03-22T13:11:05;17.00;75.90
35700;DHT22;21818;51.078;12.108;2024-03-22T13:13:33;17.00;75.90
35700;DHT22;21818;51.078;12.108;2024-03-22T13:15:59;17.00;75.90
35700;DHT22;21818;51.078;12.108;2024-03-22T13:18:27;17.00;75.90
35700;DHT22;21818;51.078;12.108;2024-03-22T13:20:54;17.00;75.90
35700;DHT22;21818;51.078;12.108;2024-03-22T13:23:20;17.10;75.90
35700;DHT22;21818;51.078;12.108;2024-03-22T13:25:45;17.00;75.90
35700;DHT22;21818;51.078;12.108;2024-03-22T13:28:11;17.10;76.00
35700;DHT22;21818;51.078;12.108;2024-03-22T13:30:36;17.10;76.00
35700;DHT22;21818;51.078;12.108;2024-03-22T13:33:03;17.10;75.90
35700;DHT22;21818;51.078;12.108;2024-03-22T13:35:29;17.10;75.90
35700;DHT22;21818;51.078;12.108;2024-03-22T13:37:54;17.10;75.90
35700;DHT22;21818;51.078;12.108;2024-03-22T13:40:20;17.10;75.90
35700;DHT22;21818;51.078;12.108;2024-03-22T13:42:46;17.10;76.00
35700;DHT22;21818;51.078;12.108;2024-03-22T13:45:11;17.10;76.00
35700;DHT22;21818;51.078;12.108;2024-03-22T13:47:37;17.10;76.00
35700;DHT22;21818;51.078;12.108;2024-03-22T13:50:08;17.00;75.90
35700;DHT22;21818;51.078;12.108;2024-03-22T13:52:34;17.00;75.90
35700;DHT22;21818;51.078;12.108;2024-03-22T13:55:01;17.00;76.00
35700;DHT22;21818;51.078;12.108;2024-03-22T13:57:27;17.00;76.00
35700;DHT22;21818;51.078;12.108;2024-03-22T13:59:53;17.10;76.10
35700;DHT22;21818;51.078;12.108;2024-03-22T14:02:18;17.00;76.00
35700;DHT22;21818;51.078;12.108;2024-03-22T14:04:45;17.00;76.50
35700;DHT22;21818;51.078;12.108;2024-03-22T14:07:10;17.00;75.90
35700;DHT22;21818;51.078;12.108;2024-03-22T14:09:36;17.00;76.00
35700;DHT22;21818;51.078;12.108;2024-03-22T14:12:02;17.00;76.10
35700;DHT22;21818;51.078;12.108;2024-03-22T14:14:27;17.00;76.10
35700;DHT22;21818;51.078;12.108;2024-03-22T14:16:54;17.00;76.20
35700;DHT22;21818;51.078;12.108;2024-03-22T14:19:19;17.00;76.20
35700;DHT22;21818;51.078;12.108;2024-03-22T14:21:45;17.00;76.10
35700;DHT22;21818;51.078;12.108;2024-03-22T14:24:14;17.00;76.10
35700;DHT22;21818;51.078;12.108;2024-03-22T14:26:41;17.00;76.20
35700;DHT22;21818;51.078;12.108;2024-03-22T14:29:10;16.90;76.10
35700;DHT22;21818;51.078;12.108;2024-03-22T14:31:36;16.90;76.10
35700;DHT22;21818;51.078;12.108;2024-03-22T14:34:02;16.90;76.20
35700;DHT22;21818;51.078;12.108;2024-03-22T14:36:28;16.90;76.20
35700;DHT22;21818;51.078;12.108;2024-03-22T14:38:53;16.90;76.20
35700;DHT22;21818;51.078;12.108;2024-03-22T14:41:19;16.90;76.20
35700;DHT22;21818;51.078;12.108;2024-03-22T14:43:44;16.90;76.20
35700;DHT22;21818;51.078;12.108;2024-03-22T14:46:10;16.90;76.20
35700;DHT22;21818;51.078;12.108;2024-03-22T14:48:35;16.90;76.20
35700;DHT22;21818;51.078;12.108;2024-03-22T14:51:01;16.90;76.30
35700;DHT22;21818;51.078;12.108;2024-03-22T14:53:27;16.90;76.30
35700;DHT22;21818;51.078;12.108;2024-03-22T14:56:01;16.90;76.20
35700;DHT22;21818;51.078;12.108;2024-03-22T14:58:33;16.90;76.20
35700;DHT22;21818;51.078;12.108;2024-03-22T15:01:03;16.90;76.10
35700;DHT22;21818;51.078;12.108;2024-03-22T15:03:30;16.90;76.10
35700;DHT22;21818;51.078;12.108;2024-03-22T15:05:57;16.90;76.10
35700;DHT22;21818;51.078;12.108;2024-03-22T15:08:25;17.00;76.10